»·PEaware :: WAT463 KBFL-KSBP

WAT463 :: KBFL-KSBP

FLIGHT INFORMATION

Flight Status: Arrived
Operator:
Walker Air Transport
More flights by this operator :: More flights under this callsign
Pilot: Dan S. (31216)
Aircraft: CESSNA 182 SKYLANE
(C182)
More flights by this aircraft type
Origin: KBFL Meadows
United States
Destination: KSBP San Luis Co Regl
United States
More flights between these airports :: More routes between these airports
Route: CADAB
File this flight plan on PilotEdge
Remarks:
Altitude:
(Current/Filed)
8,000ft
Speed:
(Current/Filed)
145kts
Departed: 10-Jan-21 07:48 PM
Arrived: 10-Jan-21 08:35 PM
Distance/Time
Traveled:
78nm/0:47
Distance/Time
To Go:
Arrived

Flight Plot

Page will automatically refresh every two minutes.

Flight plan parsing failed; only flown route is shown


Map Options




Map Legend


Flown Route
Filed Route
Departure Airport
Arrival Airport
Navaid (VOR, NDB)
Fix

Horizontal Profiles

Position Reports

Time Latitude Longitude Heading Altitude Ground
Speed
10-Jan-21 19:24 35.429585 -119.046902 136 493ft 0kts
10-Jan-21 19:25 35.429585 -119.046902 136 493ft 0kts
10-Jan-21 19:26 35.429585 -119.046902 136 493ft 0kts
10-Jan-21 19:27 35.429585 -119.046902 136 493ft 0kts
10-Jan-21 19:28 35.429585 -119.046902 136 493ft 0kts
10-Jan-21 19:29 35.429585 -119.046902 136 493ft 0kts
10-Jan-21 19:30 35.429585 -119.046902 136 493ft 0kts
10-Jan-21 19:31 35.429585 -119.046902 136 493ft 0kts
10-Jan-21 19:32 35.429585 -119.046902 136 493ft 0kts
10-Jan-21 19:33 35.429584 -119.046902 136 493ft 0kts
10-Jan-21 19:34 35.429584 -119.046902 136 493ft 0kts
10-Jan-21 19:35 35.429584 -119.046902 136 493ft 0kts
10-Jan-21 19:36 35.429584 -119.046902 136 493ft 0kts
10-Jan-21 19:37 35.429584 -119.046902 136 493ft 0kts
10-Jan-21 19:38 35.429584 -119.046902 136 493ft 0kts
10-Jan-21 19:39 35.429584 -119.046902 136 493ft 0kts
10-Jan-21 19:40 35.429584 -119.046902 136 493ft 0kts
10-Jan-21 19:41 35.429584 -119.046902 136 493ft 0kts
10-Jan-21 19:42 35.429355 -119.046855 206 492ft 0kts
10-Jan-21 19:43 35.427016 -119.045693 135 486ft 19kts
10-Jan-21 19:44 35.425635 -119.044861 305 481ft 0kts
10-Jan-21 19:45 35.425634 -119.044860 305 481ft 0kts
10-Jan-21 19:46 35.425637 -119.044865 304 481ft 0kts
10-Jan-21 19:47 35.432504 -119.054592 317 693ft 88kts
10-Jan-21 19:48 35.449122 -119.076259 313 1736ft 89kts
10-Jan-21 19:49 35.465335 -119.099334 313 2491ft 89kts
10-Jan-21 19:50 35.481662 -119.122420 312 3267ft 89kts
10-Jan-21 19:51 35.498202 -119.145448 313 4021ft 90kts
10-Jan-21 19:52 35.515034 -119.168424 313 4801ft 90kts
10-Jan-21 19:53 35.531603 -119.191125 313 5604ft 88kts
10-Jan-21 19:54 35.533177 -119.218584 253 6404ft 96kts
10-Jan-21 19:55 35.522370 -119.248802 257 7195ft 96kts
10-Jan-21 19:56 35.511817 -119.279765 261 7940ft 100kts
10-Jan-21 19:57 35.499161 -119.318556 258 8001ft 138kts
10-Jan-21 19:58 35.484112 -119.363556 258 8014ft 143kts
10-Jan-21 19:59 35.468853 -119.409329 258 8017ft 145kts
10-Jan-21 20:00 35.453552 -119.455209 257 8017ft 145kts
10-Jan-21 20:01 35.438120 -119.500992 257 7999ft 143kts
10-Jan-21 20:02 35.422984 -119.546187 257 7999ft 142kts
10-Jan-21 20:03 35.407983 -119.591114 257 7999ft 142kts
10-Jan-21 20:04 35.392911 -119.635966 257 7999ft 142kts
10-Jan-21 20:05 35.377864 -119.680753 257 8019ft 142kts
10-Jan-21 20:06 35.362739 -119.725742 257 8019ft 143kts
10-Jan-21 20:07 35.347620 -119.770667 256 8012ft 143kts
10-Jan-21 20:08 35.332395 -119.815778 256 8001ft 142kts
10-Jan-21 20:09 35.317213 -119.860739 256 7974ft 144kts
10-Jan-21 20:10 35.301825 -119.906212 256 7937ft 143kts
10-Jan-21 20:11 35.286596 -119.951047 256 7937ft 142kts
10-Jan-21 20:12 35.271604 -119.995313 256 8001ft 141kts
10-Jan-21 20:13 35.256486 -120.039851 256 8001ft 142kts
10-Jan-21 20:14 35.241238 -120.084627 256 8001ft 143kts
10-Jan-21 20:15 35.225840 -120.129869 256 8001ft 145kts
10-Jan-21 20:16 35.210248 -120.175458 256 8010ft 144kts
10-Jan-21 20:17 35.194727 -120.220876 256 8010ft 145kts
10-Jan-21 20:18 35.179021 -120.266730 257 8002ft 145kts
10-Jan-21 20:19 35.163530 -120.312052 257 7883ft 149kts
10-Jan-21 20:20 35.147132 -120.359921 255 6687ft 150kts
10-Jan-21 20:21 35.131090 -120.406618 254 5482ft 151kts
10-Jan-21 20:22 35.108816 -120.441928 175 4823ft 147kts
10-Jan-21 20:23 35.084188 -120.400422 113 4150ft 161kts
10-Jan-21 20:24 35.065058 -120.352162 109 3908ft 152kts
10-Jan-21 20:25 35.085648 -120.341284 299 3906ft 126kts
10-Jan-21 20:26 35.101991 -120.379119 300 3910ft 126kts
10-Jan-21 20:27 35.116766 -120.419055 295 3910ft 130kts
10-Jan-21 20:28 35.132475 -120.457945 311 3909ft 128kts
10-Jan-21 20:29 35.153363 -120.493846 308 3266ft 128kts
10-Jan-21 20:30 35.173231 -120.528033 306 2589ft 126kts
10-Jan-21 20:31 35.193987 -120.564936 307 1798ft 136kts
10-Jan-21 20:32 35.209790 -120.592653 307 1175ft 86kts
10-Jan-21 20:33 35.223865 -120.617394 306 634ft 91kts
10-Jan-21 20:34 35.236117 -120.638843 303 218ft 30kts
10-Jan-21 20:35 35.237464 -120.639915 6 218ft 0kts
10-Jan-21 20:36 35.238640 -120.639473 186 218ft 0kts
10-Jan-21 20:37 35.238640 -120.639473 186 218ft 0kts
10-Jan-21 20:38 35.238640 -120.639473 186 218ft 0kts
10-Jan-21 20:39 35.238640 -120.639473 186 218ft 0kts
10-Jan-21 20:40 35.238640 -120.639473 186 218ft 0kts
10-Jan-21 20:41 35.238640 -120.639473 186 218ft 0kts
10-Jan-21 20:43 35.238640 -120.639473 186 218ft 0kts
10-Jan-21 20:44 35.238640 -120.639473 186 218ft 0kts

Navigation Log

Ident Type
Flight plan parsing failed, navigation log unavailable